Weaverville, California
Current Conditions -  °F | °C
As of 8:35 AM on Saturday 25 Oct 2014 (Local Time) from KO54 Reporting Station
Overcast Overcast  
Wind Chill: 50°   Ceiling: 4700
Heat Index: 50°   Visibility: 10mi
Dew Point: 48°   Wind: 3mph
Humidity: 94%   Direction: 80°E
Pressure: 29.79"   Gusts: NA
Location:  40.73°N, 122.94°W
Report Text: KO54 251535Z AUTO 08003KT 10SM OVC047 10/09 A2979 RMK AO1
Loading
Personal Weather Stations






























Interactive Weather Map New forecast layout! Learn more

10-Day Weather Forecast

Advertisements
Track Severe Weather on mobile